EAGO2: Mountain Fork Riv, Eagletown,

                                SHEF ID:       EAGO2     Mountain Fork near Eagletown, OK
STATION TYPE: Stream Gauge
Regulating: Stage = 9.00, Flow = 9433

PRECIP STAGE RIV-FLOW WTR-TEMP BAT-LOAD
in ft cfs F volt
Ccp-Rev Ccp-Rev Ccp-Rev Ccp-Rev Ccp-Rev
(America/Chicago)
04/22 00:00 0.00 3.54 1878 62.62 12.09
04/22 01:00 0.00 3.37 1697 62.87 12.01
04/22 02:00 0.00 3.17 1498 62.98 12.09
04/22 03:00 0.00 2.99 1323 62.83 12.01
04/22 04:00 0.00 2.81 1163 62.69 12.01
04/22 05:00 0.00 2.64 1023 62.56 12.01
04/22 06:00 0.00 2.50 911 62.46 12.01
04/22 07:00 0.00 2.35 800 62.31 11.93
04/22 08:00 0.00 2.23 718 62.19 12.01
04/22 09:00 0.00 2.12 650 62.10 12.01
04/22 10:00 0.00 2.01 588 62.08 12.41
04/22 11:00 0.00 1.91 537 62.10 12.57
04/22 12:00 0.00 1.83 499 62.22 13.05
04/22 13:00 0.00 1.74 459 62.53 13.05
04/22 14:00 0.00 1.67 429 62.73 12.81
04/22 15:00 0.00 1.61 405 63.03 12.97
04/22 16:00 0.00 1.55 382 63.27 12.97
04/22 17:00 0.00 1.50 363 63.46 12.73
04/22 18:00 0.00 1.45 345 63.70 12.65
04/22 19:00 0.00 1.40 327 63.86 12.65
04/22 20:00 0.00 1.35 310 63.84 12.41
04/22 21:00 0.00 1.31 297 63.77 12.25
04/22 22:00 0.00 1.28 287 63.68 12.17
04/22 23:00 0.00 1.25 278 63.59 12.17
Data processed at Thu 23Apr2026 04:39 GMT

NOTICE: If you are parsing this page

Please convert to using our Data API. Starting early 2026 we will be migrating to: https://water.usace.army.mil with modern pages rendered in JavaScript. When this migration completes you will no longer be able to scrape this page! CWMSDataAPI (CDA)

Timeseries IDs (TSIDs)

TSIDs used from left to right in the data table
EAGL.Precip-Inc.Total.1Hour.1Hour.Ccp-Rev
EAGL.Stage.Inst.1Hour.0.Ccp-Rev
EAGL.Flow.Inst.1Hour.0.Ccp-Rev
EAGL.Temp-Water.Inst.1Hour.0.Ccp-Rev
EAGL.Volt-Battery Load.Inst.1Hour.0.Ccp-Rev

                            

All information presented herein is the property of the government of the United States of America and may be revised or deleted at any time without prior notice. Dissemination of this information without the expressed written consent of the Public Affairs Office, Tulsa District U.S. Army Corps of Engineers is strictly prohibited. These data are gathered electronically and, as presented, have NOT undergone any form of quality control. These data are NOT guaranteed to be valid or correct.